Philip Billard Municipal Airport
KTOP : now visible

Airfield :











YOU CAN JOIN US ON...

 
LOGIN :

Register | Disclaimer

   EN    FR    IT 

 









Legend :    VFR   Marginal VFR   IFR   Intensive IFR   Very Intensive IFR
Visi :
Ceiling :
>= 8 km
>= 3000ft
5 to 8 km
1000 to 3000 ft
1500m to 5 km
500 to 1000 ft
800 to 1500m
200 to 500 ft
< 800m
< 200 ft
Symbols :   Thunderstorms  Fog  Heavy snow  Heavy precipitations  Wind > 20 kt






- Airport Elevation : 881 ft


KTOP - Philip Billard Municipal

CURRENT METAR :
  • 231453Z 00000KT 10SM CLR 07/02 A3001 RMK AO2 SLP166 T00720022 53009

EXPIRED METARs :
  • 231353Z 00000KT 10SM CLR 04/01 A3000 RMK AO2 SLP161 T00390011
  • 231253Z 00000KT 10SM CLR 04/01 A2998 RMK AO2 SLP156 T00440011

TAF KTOP
Valid from the 23 at 12:00 until the 24 at 12:00 UTC


231120Z 2312/2412 19005KT P6SM BKN250
FM232200 12004KT P6SM SCT030 OVC100
FM240400 05006KT 5SM -RA OVC025
FM240700 03013G19KT 3SM RA OVC015



MET'MAP, your aeronautical weather chart ! - Copyright ORBIFLY December 2007 - Disclaimer

ORBIFLY MET'MAP TEAM :

Programming & Development : Alexandra Zaïnal
Concept & original design : Baudouin d'Aumeries
Assistance for programming : Marc-Olivier Méhu
Technical & hardware support : Manuel Goepfert

Contact : metmap@orbifly.com




SOURCES & CREDITS :

   NOAA       Earth
Advisory